createdAt,value
2019-04-16T00:01:05.866Z,95.90
2019-04-16T00:03:55.287Z,96.00
2019-04-16T00:06:54.398Z,96.00
2019-04-16T00:09:55.770Z,96.20
2019-04-16T00:12:59.420Z,96.30
2019-04-16T00:15:44.640Z,96.00
2019-04-16T00:18:28.491Z,96.50
2019-04-16T00:21:31.094Z,97.30
2019-04-16T00:24:33.585Z,97.20
2019-04-16T00:27:17.816Z,96.60
2019-04-16T00:30:05.071Z,97.10
2019-04-16T00:32:49.077Z,97.00
2019-04-16T00:35:33.355Z,97.00
2019-04-16T00:38:17.546Z,97.50
2019-04-16T00:41:02.390Z,97.40
2019-04-16T00:43:46.282Z,97.90
2019-04-16T00:49:16.686Z,98.10
2019-04-16T00:52:05.883Z,98.00
2019-04-16T00:54:47.238Z,98.50
2019-04-16T00:57:19.503Z,98.60
2019-04-16T01:00:03.707Z,99.00
2019-04-16T01:02:47.389Z,99.00
2019-04-16T01:05:35.082Z,98.10
2019-04-16T01:08:17.692Z,97.90
2019-04-16T01:11:01.402Z,99.40
2019-04-16T01:13:45.256Z,99.10
2019-04-16T01:16:30.246Z,99.50
2019-04-16T01:19:15.497Z,99.20
2019-04-16T01:21:59.923Z,98.80
2019-04-16T01:24:43.775Z,98.90
2019-04-16T01:30:47.662Z,98.70
2019-04-16T01:37:00.370Z,99.20
2019-04-16T01:39:47.602Z,99.90
2019-04-16T01:42:30.490Z,99.90
2019-04-16T01:45:14.703Z,99.90
2019-04-16T01:47:58.638Z,99.90
2019-04-16T01:50:43.755Z,99.90
2019-04-16T01:53:28.666Z,99.90
2019-04-16T01:56:12.995Z,99.80
2019-04-16T01:58:56.930Z,99.70
2019-04-16T02:01:43.496Z,99.90
2019-04-16T02:04:25.897Z,99.90
2019-04-16T02:07:09.663Z,99.90
2019-04-16T02:09:54.232Z,99.90
2019-04-16T02:12:38.608Z,99.90
2019-04-16T02:15:22.524Z,99.90
2019-04-16T02:18:06.734Z,99.90
2019-04-16T02:20:51.209Z,99.90
2019-04-16T02:23:35.068Z,99.90
2019-04-16T02:26:20.637Z,99.90
2019-04-16T02:29:04.042Z,99.90
2019-04-16T02:31:51.810Z,99.90
2019-04-16T02:34:33.564Z,99.90
2019-04-16T02:37:17.892Z,99.90
2019-04-16T02:40:01.631Z,99.90
2019-04-16T02:42:46.006Z,99.90
2019-04-16T02:45:29.892Z,99.90
2019-04-16T02:48:16.972Z,99.90
2019-04-16T02:57:27.606Z,99.90
2019-04-16T03:00:38.837Z,99.90
2019-04-16T03:06:32.607Z,99.90
2019-04-16T03:09:16.605Z,99.90
2019-04-16T03:12:00.929Z,99.90
2019-04-16T03:14:45.277Z,99.90
2019-04-16T03:17:34.537Z,99.90
2019-04-16T03:20:20.896Z,99.90
2019-04-16T03:23:06.110Z,99.90
2019-04-16T03:25:49.381Z,99.90
2019-04-16T03:28:33.040Z,99.90
2019-04-16T03:31:22.173Z,99.90
2019-04-16T03:34:01.897Z,99.90
2019-04-16T03:36:45.587Z,99.90
2019-04-16T03:39:29.882Z,99.90
2019-04-16T03:42:14.145Z,99.90
2019-04-16T03:44:58.535Z,99.90
2019-04-16T03:47:42.619Z,99.90
2019-04-16T03:50:31.034Z,99.90
2019-04-16T03:53:16.648Z,99.90
2019-04-16T03:55:59.150Z,99.90
2019-04-16T03:58:42.866Z,99.90
2019-04-16T04:01:26.606Z,99.90
2019-04-16T04:04:11.274Z,99.90
2019-04-16T04:06:55.698Z,99.90
2019-04-16T04:09:39.844Z,99.90
2019-04-16T04:12:23.422Z,99.90
2019-04-16T04:15:08.741Z,99.90
2019-04-16T04:17:53.427Z,99.90
2019-04-16T04:20:38.484Z,99.90
2019-04-16T04:23:22.283Z,99.90
2019-04-16T04:26:08.873Z,99.90
2019-04-16T04:28:52.651Z,99.90
2019-04-16T04:31:37.024Z,99.90
2019-04-16T04:34:21.395Z,99.90
2019-04-16T04:37:06.020Z,99.90
2019-04-16T04:39:49.505Z,99.90
2019-04-16T04:42:33.529Z,99.90
2019-04-16T04:45:17.341Z,99.90
2019-04-16T04:48:01.616Z,99.90
2019-04-16T04:50:45.447Z,99.90
2019-04-16T04:53:29.562Z,99.90
2019-04-16T04:56:13.882Z,99.90
2019-04-16T04:58:59.296Z,99.90
2019-04-16T05:01:43.194Z,99.90
2019-04-16T05:07:31.024Z,99.90
2019-04-16T05:10:15.428Z,99.90
2019-04-16T05:12:59.856Z,99.90
2019-04-16T05:15:44.024Z,99.90
2019-04-16T05:18:27.538Z,99.90
2019-04-16T05:21:11.929Z,99.90
2019-04-16T05:23:57.525Z,99.90
2019-04-16T05:26:42.330Z,99.90
2019-04-16T05:29:26.573Z,99.90
2019-04-16T05:32:11.312Z,99.90
2019-04-16T05:34:55.313Z,99.90
2019-04-16T05:37:39.393Z,99.90
2019-04-16T05:40:23.469Z,99.90
2019-04-16T05:43:07.770Z,99.90
2019-04-16T05:45:52.052Z,99.90
2019-04-16T05:48:36.865Z,99.90
2019-04-16T05:51:21.132Z,99.90
2019-04-16T05:57:15.196Z,99.90
2019-04-16T05:59:59.071Z,99.90
2019-04-16T06:02:43.336Z,99.90
2019-04-16T06:05:28.143Z,99.90
2019-04-16T06:08:12.434Z,99.90
2019-04-16T06:10:57.668Z,99.90
2019-04-16T06:13:47.567Z,99.90
2019-04-16T06:16:50.221Z,99.90
2019-04-16T06:19:53.245Z,99.90
2019-04-16T06:23:00.564Z,99.90
2019-04-16T06:26:04.273Z,99.90
2019-04-16T06:29:07.408Z,99.90
2019-04-16T06:32:11.847Z,99.90
2019-04-16T06:35:10.905Z,99.90
2019-04-16T06:38:13.367Z,99.90
2019-04-16T06:41:03.385Z,99.90
2019-04-16T06:43:59.513Z,99.90
2019-04-16T06:47:01.664Z,99.90
2019-04-16T06:49:52.800Z,99.90
2019-04-16T06:53:01.524Z,99.90
2019-04-16T06:59:04.683Z,99.70
2019-04-16T07:02:10.601Z,99.20
2019-04-16T07:05:25.384Z,99.20
2019-04-16T07:08:37.409Z,98.70
2019-04-16T07:11:14.044Z,98.50
2019-04-16T07:13:58.561Z,98.40
2019-04-16T07:16:42.422Z,98.20
2019-04-16T07:19:26.960Z,97.70
2019-04-16T07:22:11.414Z,98.10
2019-04-16T07:24:56.897Z,97.80
2019-04-16T07:28:02.574Z,97.50
2019-04-16T07:34:00.932Z,96.60
2019-04-16T07:36:56.621Z,96.90
2019-04-16T07:40:15.942Z,96.80
2019-04-16T07:43:15.944Z,96.90
2019-04-16T07:46:28.549Z,96.40
2019-04-16T07:49:31.985Z,96.30
2019-04-16T07:52:21.790Z,95.90
2019-04-16T07:55:27.490Z,96.30
2019-04-16T07:58:22.406Z,95.40
2019-04-16T08:01:11.338Z,94.80
2019-04-16T08:09:19.247Z,94.20
2019-04-16T08:12:03.729Z,93.90
2019-04-16T08:14:48.181Z,94.70
2019-04-16T08:17:32.721Z,93.90
2019-04-16T08:20:19.802Z,93.50
2019-04-16T08:23:07.177Z,93.70
2019-04-16T08:26:08.028Z,93.40
2019-04-16T08:28:50.045Z,94.10
2019-04-16T08:31:36.825Z,92.30
2019-04-16T08:34:20.406Z,92.00
2019-04-16T08:37:07.657Z,92.50
2019-04-16T08:39:49.847Z,91.70
2019-04-16T08:42:43.942Z,91.50
2019-04-16T08:45:20.686Z,91.10
2019-04-16T08:48:04.819Z,91.20
2019-04-16T08:50:49.595Z,91.10
2019-04-16T08:53:35.646Z,90.50
2019-04-16T08:56:19.319Z,90.00
2019-04-16T08:59:03.520Z,89.70
2019-04-16T09:01:48.080Z,90.10
2019-04-16T09:04:34.634Z,89.90
2019-04-16T09:07:37.479Z,90.20
2019-04-16T09:10:24.089Z,90.10
2019-04-16T09:13:10.250Z,88.80
2019-04-16T09:15:54.637Z,84.80
2019-04-16T09:18:50.106Z,83.80
2019-04-16T09:21:34.056Z,85.00
2019-04-16T09:24:22.099Z,83.50
2019-04-16T09:30:32.218Z,82.10
2019-04-16T09:39:35.015Z,79.40
2019-04-16T09:42:19.552Z,81.00
2019-04-16T09:45:05.142Z,80.00
2019-04-16T09:48:03.690Z,78.80
2019-04-16T09:51:03.775Z,77.90
2019-04-16T09:53:47.742Z,77.40
2019-04-16T10:06:05.462Z,73.90
2019-04-16T10:08:49.338Z,74.70
2019-04-16T10:11:35.865Z,74.30
2019-04-16T10:14:19.950Z,72.90
2019-04-16T10:17:05.492Z,73.30
2019-04-16T10:19:49.698Z,72.90
2019-04-16T10:28:12.916Z,70.50
2019-04-16T10:30:58.179Z,70.90
2019-04-16T10:33:41.904Z,71.00
2019-04-16T10:36:25.892Z,72.90
2019-04-16T10:39:29.655Z,70.00
2019-04-16T10:42:33.449Z,68.50
2019-04-16T10:45:39.059Z,69.40
2019-04-16T10:51:32.004Z,69.00
2019-04-16T10:54:37.246Z,63.80
2019-04-16T10:57:38.521Z,66.20
2019-04-16T11:00:54.830Z,67.00
2019-04-16T11:03:49.991Z,65.40
2019-04-16T11:09:46.609Z,60.10
2019-04-16T11:12:31.955Z,57.10
2019-04-16T11:15:20.571Z,59.40
2019-04-16T11:21:07.982Z,56.10
2019-04-16T11:23:53.681Z,57.90
2019-04-16T11:26:39.009Z,57.10
2019-04-16T11:29:23.271Z,57.40
2019-04-16T11:35:13.078Z,56.60
2019-04-16T11:37:56.257Z,55.40
2019-04-16T11:40:41.260Z,56.00
2019-04-16T11:43:25.881Z,54.80
2019-04-16T11:46:10.514Z,53.40
2019-04-16T11:48:43.975Z,52.10
2019-04-16T11:51:28.535Z,54.00
2019-04-16T11:54:13.058Z,53.60
2019-04-16T11:56:59.497Z,53.40
2019-04-16T11:59:43.307Z,51.90
2019-04-16T12:02:40.651Z,51.50
2019-04-16T12:05:30.422Z,52.30
2019-04-16T12:08:39.593Z,51.50
2019-04-16T12:11:36.761Z,51.60
2019-04-16T12:14:34.137Z,50.60
2019-04-16T12:17:46.742Z,48.80
2019-04-16T12:20:53.669Z,49.60
2019-04-16T12:27:14.303Z,49.20
2019-04-16T12:30:23.952Z,49.60
2019-04-16T12:33:30.006Z,49.70
2019-04-16T12:56:27.991Z,48.90
2019-04-16T12:59:22.912Z,49.60
2019-04-16T13:02:46.643Z,50.70
2019-04-16T13:52:08.072Z,46.90
2019-04-16T13:57:53.896Z,47.10
2019-04-16T14:00:33.660Z,47.00
2019-04-16T14:06:58.476Z,47.40
2019-04-16T14:09:31.598Z,47.60
2019-04-16T14:22:03.073Z,46.70
2019-04-16T14:44:02.534Z,46.40
2019-04-16T14:46:39.377Z,46.70
2019-04-16T14:49:15.120Z,47.50
2019-04-16T14:55:15.927Z,46.30
2019-04-16T15:17:45.077Z,45.80
2019-04-16T15:20:37.874Z,45.80
2019-04-16T15:23:29.886Z,45.10
2019-04-16T16:05:25.237Z,46.20
2019-04-16T16:08:33.483Z,46.00
2019-04-16T16:11:21.995Z,46.00
2019-04-16T16:14:05.947Z,46.30
2019-04-16T16:16:50.801Z,45.70
2019-04-16T16:19:24.319Z,46.20
2019-04-16T16:22:11.938Z,46.40
2019-04-16T16:24:54.038Z,46.70
2019-04-16T16:27:41.760Z,45.80
2019-04-16T16:30:23.926Z,45.90
2019-04-16T16:33:08.234Z,46.00
2019-04-16T16:35:58.753Z,46.00
2019-04-16T16:38:38.032Z,45.30
2019-04-16T16:41:22.069Z,45.80
2019-04-16T16:47:35.432Z,46.50
2019-04-16T16:50:20.324Z,48.20
2019-04-16T16:53:23.536Z,49.00
2019-04-16T16:56:26.818Z,49.10
2019-04-16T16:59:30.722Z,48.70
2019-04-16T17:02:35.728Z,49.10
2019-04-16T17:08:27.052Z,49.60
2019-04-16T17:11:16.473Z,49.40
2019-04-16T17:14:01.431Z,49.50
2019-04-16T17:16:52.713Z,49.80
2019-04-16T17:19:37.939Z,49.60
2019-04-16T17:22:23.183Z,49.60
2019-04-16T17:25:11.649Z,50.00
2019-04-16T17:28:10.129Z,49.70
2019-04-16T17:30:54.749Z,50.20
2019-04-16T17:33:40.651Z,50.10
2019-04-16T17:36:26.366Z,50.00
2019-04-16T17:42:14.035Z,50.40
2019-04-16T17:45:17.224Z,50.60
2019-04-16T17:48:10.210Z,50.70
2019-04-16T17:51:13.887Z,51.00
2019-04-16T17:54:20.216Z,50.70
2019-04-16T18:00:44.220Z,51.30
2019-04-16T18:06:45.668Z,50.80
2019-04-16T18:09:38.518Z,51.30
2019-04-16T18:15:48.666Z,51.40
2019-04-16T18:18:52.317Z,51.20
2019-04-16T18:21:58.449Z,51.30
2019-04-16T18:25:01.963Z,51.30
2019-04-16T18:27:51.656Z,51.30
2019-04-16T18:30:41.966Z,51.70
2019-04-16T18:33:45.856Z,51.60
2019-04-16T18:36:37.007Z,51.80
2019-04-16T18:39:43.443Z,51.80
2019-04-16T18:42:48.983Z,52.00
2019-04-16T18:45:55.821Z,52.50
2019-04-16T18:48:55.067Z,52.40
2019-04-16T18:51:52.560Z,52.40
2019-04-16T18:54:38.625Z,52.70
2019-04-16T19:03:30.418Z,52.70
2019-04-16T19:06:14.117Z,52.50
2019-04-16T19:08:59.933Z,52.80
2019-04-16T19:11:45.796Z,53.10
2019-04-16T19:14:29.709Z,53.10
2019-04-16T19:17:16.725Z,53.20
2019-04-16T19:20:03.624Z,53.10
2019-04-16T19:22:34.243Z,53.70
2019-04-16T19:25:18.541Z,53.50
2019-04-16T19:28:06.016Z,53.50
2019-04-16T19:30:50.607Z,53.90
2019-04-16T19:33:38.331Z,53.80
2019-04-16T19:36:24.760Z,53.80
2019-04-16T19:39:13.843Z,54.00
2019-04-16T19:41:58.170Z,54.10
2019-04-16T19:44:45.807Z,54.50
2019-04-16T19:47:30.199Z,54.50
2019-04-16T19:50:17.362Z,54.30
2019-04-16T19:53:25.080Z,54.40
2019-04-16T19:56:08.885Z,54.60
2019-04-16T20:01:37.540Z,55.60
2019-04-16T20:04:22.665Z,55.00
2019-04-16T20:07:10.163Z,55.10
2019-04-16T20:09:56.404Z,55.30
2019-04-16T20:12:30.427Z,55.30
2019-04-16T20:15:14.876Z,55.10
2019-04-16T20:18:01.665Z,55.10
2019-04-16T20:20:50.114Z,55.30
2019-04-16T20:23:34.240Z,55.30
2019-04-16T20:26:08.826Z,56.20
2019-04-16T20:28:52.650Z,56.00
2019-04-16T20:31:36.771Z,56.20
2019-04-16T20:34:23.230Z,56.40
2019-04-16T20:37:07.348Z,56.70
2019-04-16T20:39:51.898Z,56.70
2019-04-16T20:42:36.399Z,57.10
2019-04-16T20:45:22.527Z,57.20
2019-04-16T20:48:09.083Z,57.50
2019-04-16T20:50:53.143Z,57.40
2019-04-16T20:53:40.727Z,57.60
2019-04-16T20:56:23.786Z,57.70
2019-04-16T20:59:08.241Z,57.70
2019-04-16T21:01:52.256Z,58.60
2019-04-16T21:04:36.239Z,58.30
2019-04-16T21:07:19.793Z,58.50
2019-04-16T21:10:04.537Z,58.50
2019-04-16T21:12:54.739Z,59.00
2019-04-16T21:15:37.014Z,58.90
2019-04-16T21:18:22.183Z,59.00
2019-04-16T21:21:05.950Z,59.10
2019-04-16T21:23:50.483Z,59.10
2019-04-16T21:26:35.542Z,59.30
2019-04-16T21:35:41.898Z,59.70
2019-04-16T21:38:31.088Z,60.00
2019-04-16T21:41:15.366Z,61.00
2019-04-16T21:43:59.204Z,62.00
2019-04-16T21:46:31.545Z,61.40
2019-04-16T21:49:15.448Z,62.30
2019-04-16T21:57:48.010Z,62.40
2019-04-16T22:00:39.199Z,63.30
2019-04-16T22:03:41.705Z,64.20
2019-04-16T22:06:22.984Z,64.70
2019-04-16T22:09:06.954Z,65.60
2019-04-16T22:11:52.758Z,66.00
2019-04-16T22:14:38.779Z,66.90
2019-04-16T22:17:23.861Z,66.80
2019-04-16T22:20:09.099Z,67.50
2019-04-16T22:22:57.023Z,67.90
2019-04-16T22:25:40.409Z,68.60
2019-04-16T22:28:24.982Z,69.00
2019-04-16T22:31:10.900Z,69.50
2019-04-16T22:33:55.438Z,70.30
2019-04-16T22:36:28.836Z,71.00
2019-04-16T22:39:31.791Z,71.80
2019-04-16T22:42:29.663Z,72.40
2019-04-16T22:45:47.283Z,73.00
2019-04-16T22:48:31.380Z,73.70
2019-04-16T22:51:15.635Z,74.60
2019-04-16T22:53:59.797Z,75.60
2019-04-16T22:57:04.664Z,75.80
2019-04-16T22:59:48.688Z,76.70
2019-04-16T23:02:33.598Z,77.40
2019-04-16T23:05:06.078Z,77.60
2019-04-16T23:07:50.745Z,77.90
2019-04-16T23:10:35.014Z,78.20
2019-04-16T23:13:19.740Z,78.50
2019-04-16T23:16:05.253Z,79.60
2019-04-16T23:18:50.295Z,80.40
2019-04-16T23:21:41.897Z,81.00
2019-04-16T23:24:28.754Z,80.20
2019-04-16T23:27:13.074Z,80.40
2019-04-16T23:29:59.907Z,80.50
2019-04-16T23:32:43.831Z,81.00
2019-04-16T23:35:29.078Z,81.80
2019-04-16T23:38:13.374Z,81.30
2019-04-16T23:40:58.029Z,81.50
2019-04-16T23:43:40.016Z,81.90
2019-04-16T23:46:48.442Z,82.20
2019-04-16T23:49:37.043Z,82.40
2019-04-16T23:52:28.371Z,82.60
2019-04-16T23:55:17.729Z,82.70
2019-04-16T23:58:35.803Z,83.60
